createdAt,value
2017-11-10T00:00:07.814Z,124.30
2017-11-10T00:02:35.643Z,115.43
2017-11-10T00:05:03.460Z,130.43
2017-11-10T00:07:31.312Z,83.37
2017-11-10T00:09:59.133Z,99.63
2017-11-10T00:12:26.983Z,95.53
2017-11-10T00:14:54.801Z,89.40
2017-11-10T00:17:22.682Z,87.80
2017-11-10T00:19:50.483Z,102.90
2017-11-10T00:22:18.314Z,79.07
2017-11-10T00:24:46.172Z,91.37
2017-11-10T00:27:13.995Z,99.30
2017-11-10T00:29:41.836Z,99.10
2017-11-10T00:32:09.682Z,100.57
2017-11-10T00:34:37.526Z,96.63
2017-11-10T00:37:05.398Z,94.47
2017-11-10T00:39:33.269Z,72.30
2017-11-10T00:42:01.085Z,85.23
2017-11-10T00:44:28.925Z,80.07
2017-11-10T00:46:56.769Z,77.87
2017-11-10T00:49:24.606Z,76.53
2017-11-10T00:51:52.422Z,92.10
2017-11-10T00:54:20.261Z,63.10
2017-11-10T00:56:48.077Z,92.17
2017-11-10T00:59:15.915Z,92.93
2017-11-10T01:01:43.772Z,91.33
2017-11-10T01:04:11.601Z,97.30
2017-11-10T01:06:39.451Z,105.70
2017-11-10T01:09:07.311Z,109.70
2017-11-10T01:11:35.187Z,94.27
2017-11-10T01:14:03.026Z,95.80
2017-11-10T01:16:30.870Z,91.80
2017-11-10T01:18:58.710Z,101.87
2017-11-10T01:21:26.533Z,117.53
2017-11-10T01:23:54.374Z,104.13
2017-11-10T01:26:22.210Z,108.00
2017-11-10T01:28:50.026Z,105.17
2017-11-10T01:31:17.853Z,100.53
2017-11-10T01:33:45.690Z,81.80
2017-11-10T01:36:13.546Z,108.60
2017-11-10T01:38:41.378Z,83.63
2017-11-10T01:41:09.238Z,95.27
2017-11-10T01:43:37.070Z,90.10
2017-11-10T01:46:04.913Z,81.50
2017-11-10T01:48:38.894Z,76.83
2017-11-10T01:51:06.721Z,79.83
2017-11-10T01:53:34.553Z,76.70
2017-11-10T01:56:02.421Z,73.40
2017-11-10T01:58:30.315Z,59.93
2017-11-10T02:00:58.137Z,65.63
2017-11-10T02:03:26.014Z,60.97
2017-11-10T02:05:53.845Z,64.37
2017-11-10T02:08:21.689Z,66.53
2017-11-10T02:10:49.510Z,69.30
2017-11-10T02:13:17.349Z,59.63
2017-11-10T02:15:45.173Z,48.87
2017-11-10T02:18:12.992Z,69.03
2017-11-10T02:20:40.866Z,56.70
2017-11-10T02:23:08.692Z,60.23
2017-11-10T02:25:36.532Z,65.13
2017-11-10T02:28:04.377Z,61.60
2017-11-10T02:30:32.191Z,66.90
2017-11-10T02:33:00.027Z,63.00
2017-11-10T02:35:27.850Z,61.47
2017-11-10T02:37:55.673Z,69.03
2017-11-10T02:40:23.497Z,65.27
2017-11-10T02:42:51.345Z,74.97
2017-11-10T02:45:19.173Z,73.53
2017-11-10T02:47:47.009Z,78.27
2017-11-10T02:50:14.854Z,81.37
2017-11-10T02:52:42.698Z,98.10
2017-11-10T02:55:10.530Z,77.73
2017-11-10T02:57:38.354Z,73.27
2017-11-10T03:00:06.174Z,82.77
2017-11-10T03:02:34.050Z,87.13
2017-11-10T03:05:02.001Z,84.57
2017-11-10T03:07:29.835Z,77.40
2017-11-10T03:09:57.658Z,90.13
2017-11-10T03:12:25.478Z,82.97
2017-11-10T03:14:53.342Z,95.20
2017-11-10T03:17:21.206Z,89.13
2017-11-10T03:19:49.056Z,92.20
2017-11-10T03:22:16.907Z,81.73
2017-11-10T03:24:44.734Z,84.40
2017-11-10T03:27:12.561Z,84.23
2017-11-10T03:29:40.414Z,93.07
2017-11-10T03:32:08.231Z,90.77
2017-11-10T03:34:36.057Z,90.83
2017-11-10T03:37:03.894Z,90.50
2017-11-10T03:39:31.754Z,93.37
2017-11-10T03:41:59.574Z,89.60
2017-11-10T03:44:27.421Z,77.57
2017-11-10T03:46:55.249Z,76.50
2017-11-10T03:49:23.105Z,84.87
2017-11-10T03:51:50.949Z,63.20
2017-11-10T03:54:18.836Z,68.30
2017-11-10T03:56:46.670Z,83.90
2017-11-10T03:59:15.266Z,80.87
2017-11-10T04:01:43.096Z,96.43
2017-11-10T04:04:10.938Z,109.20
2017-11-10T04:06:38.787Z,70.63
2017-11-10T04:09:06.623Z,81.47
2017-11-10T04:11:34.473Z,107.83
2017-11-10T04:14:02.320Z,56.43
2017-11-10T04:16:30.152Z,89.90
2017-11-10T04:18:58.002Z,84.23
2017-11-10T04:21:25.841Z,100.17
2017-11-10T04:23:53.695Z,68.53
2017-11-10T04:26:21.518Z,84.30
2017-11-10T04:28:49.345Z,79.37
2017-11-10T04:31:17.178Z,80.90
2017-11-10T04:33:45.021Z,70.40
2017-11-10T04:36:12.889Z,74.53
2017-11-10T04:38:40.732Z,89.83
2017-11-10T04:41:08.583Z,79.23
2017-11-10T04:43:36.414Z,91.43
2017-11-10T04:46:04.254Z,91.17
2017-11-10T04:48:32.083Z,106.20
2017-11-10T04:50:59.902Z,102.83
2017-11-10T04:53:27.725Z,67.67
2017-11-10T04:55:55.553Z,67.03
2017-11-10T04:58:23.398Z,77.57
2017-11-10T05:00:51.224Z,92.63
2017-11-10T05:03:19.050Z,87.47
2017-11-10T05:05:46.915Z,108.60
2017-11-10T05:08:14.761Z,79.03
2017-11-10T05:10:42.592Z,84.47
2017-11-10T05:13:10.448Z,80.70
2017-11-10T05:15:38.292Z,86.37
2017-11-10T05:18:06.121Z,102.87
2017-11-10T05:20:33.946Z,62.47
2017-11-10T05:23:01.785Z,103.30
2017-11-10T05:25:29.622Z,62.37
2017-11-10T05:27:57.506Z,68.07
2017-11-10T05:30:25.356Z,93.23
2017-11-10T05:32:53.224Z,94.97
2017-11-10T05:35:21.063Z,72.23
2017-11-10T05:37:48.897Z,74.37
2017-11-10T05:40:16.730Z,85.87
2017-11-10T05:42:44.571Z,90.20
2017-11-10T05:45:12.432Z,84.40
2017-11-10T05:47:40.274Z,82.77
2017-11-10T05:50:08.106Z,62.60
2017-11-10T05:52:35.959Z,91.13
2017-11-10T05:55:03.822Z,89.23
2017-11-10T05:57:31.649Z,87.20
2017-11-10T05:59:59.498Z,100.60
2017-11-10T06:02:27.360Z,92.77
2017-11-10T06:04:55.195Z,97.50
2017-11-10T06:07:23.036Z,96.37
2017-11-10T06:09:50.857Z,76.70
2017-11-10T06:12:18.674Z,79.67
2017-11-10T06:14:46.531Z,80.97
2017-11-10T06:17:14.362Z,92.27
2017-11-10T06:19:42.197Z,73.73
2017-11-10T06:22:10.033Z,79.23
2017-11-10T06:24:37.879Z,87.20
2017-11-10T06:27:05.711Z,78.20
2017-11-10T06:29:33.545Z,97.53
2017-11-10T06:32:01.437Z,65.33
2017-11-10T06:34:29.279Z,96.30
2017-11-10T06:36:57.099Z,93.23
2017-11-10T06:39:24.950Z,87.00
2017-11-10T06:41:52.885Z,82.27
2017-11-10T06:44:20.750Z,63.03
2017-11-10T06:46:48.602Z,75.20
2017-11-10T06:49:16.452Z,76.60
2017-11-10T06:51:44.285Z,93.77
2017-11-10T06:54:12.135Z,56.50
2017-11-10T06:56:42.236Z,99.57
2017-11-10T06:59:10.106Z,95.77
2017-11-10T07:01:37.971Z,71.83
2017-11-10T07:04:05.829Z,89.40
2017-11-10T07:06:33.663Z,82.60
2017-11-10T07:09:01.550Z,90.40
2017-11-10T07:11:29.409Z,85.67
2017-11-10T07:13:57.260Z,90.27
2017-11-10T07:16:25.100Z,63.47
2017-11-10T07:18:52.921Z,83.27
2017-11-10T07:21:20.781Z,87.57
2017-11-10T07:23:48.593Z,92.63
2017-11-10T07:26:16.419Z,82.37
2017-11-10T07:28:44.237Z,82.30
2017-11-10T07:31:12.077Z,75.50
2017-11-10T07:33:39.909Z,66.70
2017-11-10T07:36:07.738Z,62.07
2017-11-10T07:38:35.610Z,82.87
2017-11-10T07:41:04.376Z,86.10
2017-11-10T07:43:32.200Z,90.80
2017-11-10T07:46:00.041Z,81.30
2017-11-10T07:48:27.876Z,88.47
2017-11-10T07:50:55.715Z,75.80
2017-11-10T07:53:23.531Z,69.93
2017-11-10T07:55:51.382Z,72.53
2017-11-10T07:58:19.217Z,89.60
2017-11-10T08:00:47.066Z,81.87
2017-11-10T08:03:14.894Z,77.10
2017-11-10T08:05:42.756Z,71.03
2017-11-10T08:08:10.590Z,103.03
2017-11-10T08:10:38.454Z,76.57
2017-11-10T08:16:08.112Z,75.17
2017-11-10T08:21:38.683Z,57.03
2017-11-10T08:24:11.358Z,82.43
2017-11-10T08:29:58.499Z,78.13
2017-11-10T08:38:14.519Z,70.80
2017-11-10T08:43:35.081Z,51.20
2017-11-10T09:12:55.343Z,85.00
2017-11-10T09:15:38.855Z,64.50
2017-11-10T09:18:06.695Z,92.83
2017-11-10T09:20:34.547Z,71.80
2017-11-10T09:23:02.403Z,88.33
2017-11-10T09:25:30.251Z,91.50
2017-11-10T09:28:13.096Z,79.23
2017-11-10T09:30:56.838Z,90.23
2017-11-10T09:36:42.046Z,46.80
2017-11-10T09:42:06.145Z,83.83
2017-11-10T09:50:39.887Z,87.90
2017-11-10T10:07:49.700Z,91.37
2017-11-10T10:10:32.890Z,66.37
2017-11-10T10:13:06.782Z,58.07
2017-11-10T10:15:40.919Z,68.93
2017-11-10T10:18:14.979Z,70.37
2017-11-10T10:20:45.733Z,62.80
2017-11-10T10:23:13.583Z,56.43
2017-11-10T10:25:42.418Z,47.23
2017-11-10T10:28:11.490Z,55.13
2017-11-10T10:30:39.958Z,46.10
2017-11-10T10:33:08.692Z,54.10
2017-11-10T10:35:37.199Z,75.43
2017-11-10T10:38:05.126Z,63.37
2017-11-10T10:40:33.062Z,64.03
2017-11-10T10:43:00.926Z,64.67
2017-11-10T10:45:30.565Z,88.33
2017-11-10T10:47:58.606Z,68.70
2017-11-10T10:50:26.463Z,65.50
2017-11-10T10:52:54.301Z,60.30
2017-11-10T10:55:22.134Z,53.87
2017-11-10T10:57:50.011Z,65.77
2017-11-10T11:00:17.868Z,52.70
2017-11-10T11:02:45.711Z,50.70
2017-11-10T11:05:13.567Z,40.60
2017-11-10T11:07:41.417Z,55.70
2017-11-10T11:10:09.259Z,59.83
2017-11-10T11:12:37.094Z,46.60
2017-11-10T11:15:04.938Z,75.00
2017-11-10T11:17:32.834Z,56.47
2017-11-10T11:20:00.671Z,50.30
2017-11-10T11:22:28.506Z,46.00
2017-11-10T11:24:56.352Z,60.33
2017-11-10T11:27:24.222Z,41.13
2017-11-10T11:29:52.062Z,57.73
2017-11-10T11:32:19.910Z,29.30
2017-11-10T11:34:47.746Z,38.13
2017-11-10T11:37:15.584Z,34.93
2017-11-10T11:39:43.434Z,46.43
2017-11-10T11:42:11.292Z,46.47
2017-11-10T11:44:39.158Z,40.27
2017-11-10T11:47:06.977Z,44.53
2017-11-10T11:49:34.818Z,43.60
2017-11-10T11:52:02.710Z,47.37
2017-11-10T11:54:30.560Z,25.60
2017-11-10T11:56:58.420Z,63.73
2017-11-10T11:59:26.338Z,48.40
2017-11-10T12:02:02.983Z,50.33
2017-11-10T12:07:25.909Z,39.03
2017-11-10T12:09:53.756Z,41.80
2017-11-10T12:12:21.585Z,47.40
2017-11-10T12:14:49.438Z,35.23
2017-11-10T12:17:17.282Z,50.60
2017-11-10T12:19:45.134Z,39.70
2017-11-10T12:22:12.974Z,27.10
2017-11-10T12:24:40.854Z,60.13
2017-11-10T12:27:08.685Z,43.93
2017-11-10T12:29:36.518Z,45.83
2017-11-10T12:32:04.369Z,40.50
2017-11-10T12:34:32.248Z,42.17
2017-11-10T12:37:00.106Z,42.17
2017-11-10T12:39:27.965Z,37.17
2017-11-10T12:41:55.805Z,51.30
2017-11-10T12:44:42.729Z,51.73
2017-11-10T12:47:11.067Z,42.03
2017-11-10T12:49:39.024Z,38.50
2017-11-10T12:52:06.891Z,52.57
2017-11-10T12:54:36.310Z,32.33
2017-11-10T12:57:04.625Z,33.77
2017-11-10T12:59:32.702Z,35.47
2017-11-10T13:02:00.602Z,29.93
2017-11-10T13:04:28.451Z,22.70
2017-11-10T13:06:56.346Z,12.53
2017-11-10T13:09:24.177Z,13.83
2017-11-10T13:11:52.076Z,21.83
2017-11-10T13:14:19.926Z,13.40
2017-11-10T13:16:47.831Z,14.90
2017-11-10T13:19:15.697Z,12.90
2017-11-10T13:21:43.573Z,8.93
2017-11-10T13:24:12.025Z,9.53
2017-11-10T13:26:39.897Z,4.83
2017-11-10T13:29:07.738Z,16.37
2017-11-10T13:31:35.549Z,10.63
2017-11-10T13:34:03.562Z,12.73
2017-11-10T13:36:31.447Z,18.73
2017-11-10T13:38:59.302Z,3.57
2017-11-10T13:41:27.148Z,14.47
2017-11-10T13:43:55.002Z,2.13
2017-11-10T13:46:22.850Z,2.63
2017-11-10T13:48:50.691Z,5.00
2017-11-10T13:51:18.562Z,3.17
2017-11-10T13:53:46.434Z,7.10
2017-11-10T13:56:14.297Z,5.03
2017-11-10T13:58:42.168Z,6.20
2017-11-10T14:01:10.006Z,10.63
2017-11-10T14:03:37.826Z,15.93
2017-11-10T14:06:05.703Z,13.50
2017-11-10T14:08:33.591Z,29.90
2017-11-10T14:11:01.427Z,6.77
2017-11-10T14:13:37.673Z,9.63
2017-11-10T14:16:05.505Z,8.43
2017-11-10T14:18:33.337Z,9.97
2017-11-10T14:21:01.201Z,8.50
2017-11-10T14:23:29.040Z,13.53
2017-11-10T14:25:56.882Z,11.23
2017-11-10T14:28:25.846Z,12.03
2017-11-10T14:30:53.686Z,11.33
2017-11-10T14:33:21.558Z,12.90
2017-11-10T14:35:49.428Z,12.70
2017-11-10T14:38:17.310Z,7.97
2017-11-10T14:40:45.178Z,5.83
2017-11-10T14:43:12.995Z,18.17
2017-11-10T14:45:54.833Z,22.83
2017-11-10T14:48:23.031Z,21.43
2017-11-10T14:50:51.517Z,11.87
2017-11-10T14:53:19.529Z,8.37
2017-11-10T14:55:47.519Z,11.67
2017-11-10T14:58:15.456Z,4.67
2017-11-10T15:00:43.306Z,9.97
2017-11-10T15:03:11.145Z,9.93
2017-11-10T15:05:38.991Z,18.17
2017-11-10T15:08:06.817Z,15.23
2017-11-10T15:10:34.650Z,17.43
2017-11-10T15:13:02.507Z,24.70
2017-11-10T15:15:30.368Z,14.80
2017-11-10T15:17:58.202Z,24.33
2017-11-10T15:20:26.048Z,23.00
2017-11-10T15:22:53.870Z,21.27
2017-11-10T15:25:33.185Z,26.13
2017-11-10T15:28:01.009Z,25.87
2017-11-10T15:30:28.853Z,29.73
2017-11-10T15:32:56.718Z,35.07
2017-11-10T15:35:31.764Z,15.83
2017-11-10T15:37:59.690Z,25.37
2017-11-10T15:40:27.561Z,15.73
2017-11-10T15:42:55.423Z,28.60
2017-11-10T15:45:23.350Z,24.90
2017-11-10T15:47:51.290Z,26.77
2017-11-10T15:50:19.139Z,25.17
2017-11-10T15:52:46.998Z,36.93
2017-11-10T15:55:21.379Z,20.30
2017-11-10T15:57:49.246Z,16.20
2017-11-10T16:00:17.112Z,18.17
2017-11-10T16:02:45.019Z,34.87
2017-11-10T16:05:14.486Z,23.70
2017-11-10T16:07:42.317Z,26.23
2017-11-10T16:10:10.156Z,15.93
2017-11-10T16:12:37.994Z,10.10
2017-11-10T16:15:05.850Z,20.00
2017-11-10T16:17:33.673Z,17.30
2017-11-10T16:20:01.482Z,27.23
2017-11-10T16:22:29.343Z,21.93
2017-11-10T16:24:57.218Z,19.10
2017-11-10T16:27:25.072Z,14.00
2017-11-10T16:29:52.914Z,24.47
2017-11-10T16:32:20.737Z,7.23
2017-11-10T16:34:48.550Z,6.63
2017-11-10T16:37:16.391Z,8.23
2017-11-10T16:39:44.258Z,15.93
2017-11-10T16:42:12.089Z,9.00
2017-11-10T16:44:39.931Z,10.10
2017-11-10T16:47:07.873Z,3.37
2017-11-10T16:49:35.738Z,13.20
2017-11-10T16:52:03.604Z,10.80
2017-11-10T16:54:31.595Z,5.03
2017-11-10T16:56:59.491Z,8.00
2017-11-10T16:59:27.365Z,12.73
2017-11-10T17:01:55.197Z,3.57
2017-11-10T17:04:23.036Z,4.00
2017-11-10T17:06:50.891Z,3.73
2017-11-10T17:09:18.772Z,3.73
2017-11-10T17:11:46.670Z,7.13
2017-11-10T17:14:14.570Z,5.47
2017-11-10T17:16:42.642Z,8.77
2017-11-10T17:19:10.973Z,8.03
2017-11-10T17:21:39.187Z,10.90
2017-11-10T17:24:07.118Z,13.45
2017-11-10T17:26:34.948Z,1.75
2017-11-10T17:29:02.763Z,6.90
2017-11-10T17:31:30.591Z,6.70
2017-11-10T17:33:58.429Z,5.82
2017-11-10T17:36:26.253Z,12.15
2017-11-10T17:38:54.070Z,15.43
2017-11-10T17:41:21.898Z,5.75
2017-11-10T17:43:49.755Z,12.05
2017-11-10T17:46:17.590Z,8.23
2017-11-10T17:48:45.429Z,9.82
2017-11-10T17:51:13.258Z,5.87
2017-11-10T17:53:41.085Z,7.47
2017-11-10T17:56:08.930Z,10.15
2017-11-10T17:58:36.767Z,12.05
2017-11-10T18:01:04.712Z,6.72
2017-11-10T18:03:32.672Z,14.38
2017-11-10T18:06:00.521Z,28.25
2017-11-10T18:08:28.363Z,16.08
2017-11-10T18:10:56.203Z,13.90
2017-11-10T18:13:24.068Z,14.80
2017-11-10T18:15:51.907Z,20.50
2017-11-10T18:18:19.725Z,19.73
2017-11-10T18:20:47.580Z,28.08
2017-11-10T18:23:15.434Z,30.60
2017-11-10T18:25:43.264Z,18.90
2017-11-10T18:28:11.121Z,26.27
2017-11-10T18:30:38.995Z,22.48
2017-11-10T18:33:06.836Z,18.75
2017-11-10T18:35:34.670Z,17.30
2017-11-10T18:38:02.722Z,29.27
2017-11-10T18:40:30.583Z,30.90
2017-11-10T18:42:58.442Z,11.95
2017-11-10T18:45:26.305Z,9.77
2017-11-10T18:47:54.164Z,24.23
2017-11-10T18:50:22.010Z,20.10
2017-11-10T18:52:49.852Z,13.45
2017-11-10T18:55:20.654Z,21.73
2017-11-10T18:57:48.501Z,16.25
2017-11-10T19:00:16.314Z,12.95
2017-11-10T19:02:44.156Z,13.25
2017-11-10T19:05:11.982Z,21.30
2017-11-10T19:07:39.809Z,17.63
2017-11-10T19:10:07.654Z,30.15
2017-11-10T19:12:35.482Z,16.20
2017-11-10T19:15:03.290Z,32.88
2017-11-10T19:17:31.113Z,15.20
2017-11-10T19:19:58.932Z,18.10
2017-11-10T19:22:26.745Z,17.37
2017-11-10T19:24:54.566Z,21.00
2017-11-10T19:27:22.391Z,16.20
2017-11-10T19:29:50.205Z,10.68
2017-11-10T19:32:18.062Z,15.93
2017-11-10T19:34:45.895Z,21.42
2017-11-10T19:37:13.753Z,33.22
2017-11-10T19:39:41.574Z,30.20
2017-11-10T19:42:09.397Z,33.45
2017-11-10T19:44:37.235Z,19.42
2017-11-10T19:47:05.065Z,23.87
2017-11-10T19:49:32.921Z,13.57
2017-11-10T19:52:00.750Z,10.48
2017-11-10T19:54:28.599Z,16.05
2017-11-10T19:56:56.422Z,8.13
2017-11-10T19:59:24.285Z,17.00
2017-11-10T20:01:52.134Z,9.00
2017-11-10T20:04:19.978Z,25.40
2017-11-10T20:06:47.805Z,12.85
2017-11-10T20:09:15.632Z,6.03
2017-11-10T20:11:43.439Z,11.50
2017-11-10T20:14:11.282Z,2.60
2017-11-10T20:16:39.115Z,20.20
2017-11-10T20:19:06.978Z,9.40
2017-11-10T20:21:34.811Z,9.45
2017-11-10T20:24:02.654Z,8.18
2017-11-10T20:26:30.476Z,8.13
2017-11-10T20:28:58.338Z,29.80
2017-11-10T20:31:26.177Z,9.93
2017-11-10T20:33:54.000Z,23.58
2017-11-10T20:36:21.851Z,7.12
2017-11-10T20:38:49.657Z,7.78
2017-11-10T20:41:17.505Z,28.02
2017-11-10T20:43:45.313Z,8.68
2017-11-10T20:46:13.142Z,6.18
2017-11-10T20:48:40.979Z,9.57
2017-11-10T20:51:08.810Z,4.95
2017-11-10T20:53:36.667Z,9.07
2017-11-10T20:56:04.493Z,8.35
2017-11-10T20:58:32.301Z,8.90
2017-11-10T21:01:00.138Z,5.10
2017-11-10T21:03:27.962Z,10.52
2017-11-10T21:05:55.790Z,16.30
2017-11-10T21:08:23.638Z,16.52
2017-11-10T21:10:51.458Z,3.97
2017-11-10T21:13:19.286Z,11.43
2017-11-10T21:15:47.105Z,9.00
2017-11-10T21:18:14.930Z,7.65
2017-11-10T21:20:42.794Z,9.68
2017-11-10T21:23:10.657Z,5.78
2017-11-10T21:25:38.505Z,8.25
2017-11-10T21:28:06.361Z,3.60
2017-11-10T21:30:34.226Z,5.65
2017-11-10T21:33:02.063Z,9.48
2017-11-10T21:35:29.902Z,10.55
2017-11-10T21:37:57.747Z,5.00
2017-11-10T21:40:25.594Z,13.48
2017-11-10T21:42:53.409Z,9.73
2017-11-10T21:45:21.244Z,4.60
2017-11-10T21:47:49.120Z,3.90
2017-11-10T21:50:16.974Z,7.07
2017-11-10T21:52:44.785Z,11.30
2017-11-10T21:55:12.624Z,8.43
2017-11-10T21:57:40.448Z,10.38
2017-11-10T22:00:08.266Z,8.98
2017-11-10T22:02:36.126Z,6.82
2017-11-10T22:05:03.965Z,15.00
2017-11-10T22:07:31.813Z,11.32
2017-11-10T22:09:59.645Z,10.63
2017-11-10T22:12:27.469Z,7.47
2017-11-10T22:14:55.316Z,5.28
2017-11-10T22:17:23.198Z,7.55
2017-11-10T22:19:51.013Z,13.00
2017-11-10T22:22:18.834Z,12.48
2017-11-10T22:24:46.674Z,10.35
2017-11-10T22:27:14.618Z,6.47
2017-11-10T22:29:42.461Z,22.85
2017-11-10T22:32:10.282Z,17.37
2017-11-10T22:34:38.118Z,10.55
2017-11-10T22:37:05.929Z,12.95
2017-11-10T22:39:33.938Z,13.45
2017-11-10T22:42:01.797Z,12.48
2017-11-10T22:44:29.621Z,3.97
2017-11-10T22:46:57.449Z,12.25
2017-11-10T22:49:25.298Z,6.12
2017-11-10T22:51:53.141Z,21.60
2017-11-10T22:54:20.966Z,12.48
2017-11-10T22:56:48.805Z,11.15
2017-11-10T22:59:16.624Z,14.18
2017-11-10T23:01:44.455Z,11.90
2017-11-10T23:04:12.269Z,8.60
2017-11-10T23:06:40.126Z,9.32
2017-11-10T23:09:07.954Z,6.70
2017-11-10T23:11:35.797Z,8.02
2017-11-10T23:14:03.646Z,8.07
2017-11-10T23:16:31.453Z,14.20
2017-11-10T23:18:59.298Z,4.07
2017-11-10T23:21:27.117Z,7.55
2017-11-10T23:23:54.945Z,10.40
2017-11-10T23:26:22.770Z,2.05
2017-11-10T23:28:50.593Z,13.80
2017-11-10T23:31:18.391Z,8.40
2017-11-10T23:33:46.227Z,10.95
2017-11-10T23:36:14.049Z,11.52
2017-11-10T23:38:41.879Z,13.30
2017-11-10T23:41:09.716Z,13.80
2017-11-10T23:43:37.563Z,12.63
2017-11-10T23:46:05.389Z,12.45
2017-11-10T23:48:33.253Z,9.18
2017-11-10T23:51:01.065Z,4.87
2017-11-10T23:53:28.889Z,14.80
2017-11-10T23:55:56.699Z,2.22
2017-11-10T23:58:24.534Z,4.55
